Terminal Aerodrome Forecast
Issued by NWS Shreveport, LA

Home | Current Version | Previous Version | Text Only | Print | Product List | Glossary On
Versions: 1 2 3 4 5 6 7 8 9 10 11 12 13 14 15 16 17 18 19
000
FTUS44 KSHV 230520
TAFMLU
TAF
KMLU 230520Z 2306/2406 31015G25KT P6SM BKN025
     FM230800 32014G24KT P6SM SKC
     FM231200 32012KT P6SM SKC
     FM240000 29005KT P6SM SKC=

USA.gov is the U.S. government's official web portal to all federal, state and local government web resources and services.